Time;durP1;ratioP1;P1;durP2;ratioP2;P2;SDS_P1;SDS_P2;PMS_P1;PMS_P2;Temp;Humidity;BMP_temperature;BMP_pressure;BME280_temperature;BME280_humidity;BME280_pressure;Samples;Min_cycle;Max_cycle;Signal;HPM_P1;HPM_P2
2021/12/03 00:00:31;;;;;;;8.63;3.72;;;0.10;99.90;;;;;;5089383;28;20032;-43
2021/12/03 00:02:56;;;;;;;7.93;3.92;;;0.10;99.90;;;;;;5095102;28;20021;-42
2021/12/03 00:05:22;;;;;;;10.30;4.65;;;0.10;99.90;;;;;;5109506;28;20038;-42
2021/12/03 00:07:48;;;;;;;9.98;4.47;;;0.10;99.90;;;;;;5109950;28;20048;-43
2021/12/03 00:10:16;;;;;;;12.45;5.00;;;0.00;99.90;;;;;;5109970;28;20043;-43
2021/12/03 00:12:42;;;;;;;8.88;4.15;;;0.00;99.90;;;;;;5110259;28;20028;-43
2021/12/03 00:15:10;;;;;;;12.43;3.92;;;0.00;99.90;;;;;;5107814;28;20039;-44
2021/12/03 00:17:36;;;;;;;7.65;4.15;;;0.00;99.90;;;;;;5108906;28;20032;-43
2021/12/03 00:20:05;;;;;;;11.77;4.32;;;0.10;99.90;;;;;;5109996;28;20023;-43
2021/12/03 00:22:31;;;;;;;7.20;4.28;;;0.00;99.90;;;;;;5110039;28;20038;-43
2021/12/03 00:24:56;;;;;;;11.63;4.55;;;0.10;99.90;;;;;;5108948;28;20497;-43
2021/12/03 00:27:22;;;;;;;13.10;5.65;;;0.00;99.90;;;;;;5108797;28;20028;-43
2021/12/03 00:29:47;;;;;;;13.20;5.25;;;0.00;99.90;;;;;;5109915;28;20036;-43
2021/12/03 00:32:13;;;;;;;10.20;4.78;;;0.00;99.90;;;;;;5102270;28;20031;-44
2021/12/03 00:34:38;;;;;;;11.20;4.88;;;0.00;99.90;;;;;;5103107;28;20338;-44
2021/12/03 00:37:04;;;;;;;12.32;5.57;;;0.10;99.90;;;;;;5109512;28;20396;-43
2021/12/03 00:39:29;;;;;;;13.18;5.50;;;0.00;99.90;;;;;;5109399;28;20016;-43
2021/12/03 00:42:00;;;;;;;10.50;5.18;;;0.00;99.90;;;;;;5109593;28;20031;-43
2021/12/03 00:44:29;;;;;;;9.98;4.60;;;0.10;99.90;;;;;;5109099;28;20020;-42
2021/12/03 00:46:55;;;;;;;14.15;4.97;;;0.10;99.90;;;;;;5109142;28;20405;-43
2021/12/03 00:49:21;;;;;;;10.70;4.82;;;0.10;99.90;;;;;;5109355;28;20039;-43
2021/12/03 00:51:46;;;;;;;8.32;4.50;;;0.20;99.90;;;;;;5109204;28;20031;-43
2021/12/03 00:54:13;;;;;;;8.52;4.20;;;0.20;99.90;;;;;;5107731;28;20389;-43
2021/12/03 00:56:39;;;;;;;9.00;4.47;;;0.20;99.90;;;;;;5109195;28;20012;-43
2021/12/03 00:59:04;;;;;;;7.68;4.25;;;0.20;99.90;;;;;;5109095;28;20185;-43
2021/12/03 01:01:30;;;;;;;10.35;4.50;;;0.20;99.90;;;;;;5104227;28;20494;-43
2021/12/03 01:03:57;;;;;;;7.28;4.20;;;0.20;99.90;;;;;;5099898;28;20554;-43
2021/12/03 01:06:23;;;;;;;8.93;5.22;;;0.20;99.90;;;;;;5109368;28;20028;-43
2021/12/03 01:08:48;;;;;;;8.10;4.47;;;0.20;99.90;;;;;;5109061;28;20039;-43
2021/12/03 01:11:15;;;;;;;13.15;4.53;;;0.20;99.90;;;;;;5108894;28;20577;-43
2021/12/03 01:13:43;;;;;;;11.88;4.40;;;0.20;99.90;;;;;;5108465;28;20028;-42
2021/12/03 01:16:10;;;;;;;7.93;4.45;;;0.20;99.90;;;;;;5108874;28;20254;-43
2021/12/03 01:18:36;;;;;;;9.52;5.05;;;0.20;99.90;;;;;;5108978;28;20106;-44
2021/12/03 01:21:03;;;;;;;7.47;4.05;;;0.30;99.90;;;;;;5107527;28;20266;-43
2021/12/03 01:23:29;;;;;;;7.28;3.92;;;0.20;99.90;;;;;;5108334;28;20023;-43
2021/12/03 01:25:55;;;;;;;7.43;4.43;;;0.30;99.90;;;;;;5108690;28;20235;-42
2021/12/03 01:28:21;;;;;;;5.50;3.75;;;0.30;99.90;;;;;;5107544;28;20472;-42
2021/12/03 01:30:47;;;;;;;10.05;4.90;;;0.30;99.90;;;;;;5105413;28;20026;-43
2021/12/03 01:33:13;;;;;;;7.90;4.60;;;0.30;99.90;;;;;;5099189;28;20028;-43
2021/12/03 01:35:39;;;;;;;8.15;4.15;;;0.30;99.90;;;;;;5108540;28;20030;-42
2021/12/03 01:38:06;;;;;;;9.73;4.13;;;0.30;99.90;;;;;;5107476;28;20036;-43
2021/12/03 01:40:34;;;;;;;9.18;4.45;;;0.30;99.90;;;;;;5108463;28;20362;-42
2021/12/03 01:43:00;;;;;;;10.48;4.93;;;0.30;99.90;;;;;;5108674;28;20108;-43
2021/12/03 01:45:31;;;;;;;9.50;5.20;;;0.30;99.90;;;;;;5107893;28;20028;-44
2021/12/03 01:47:58;;;;;;;7.88;4.88;;;0.30;99.90;;;;;;5108765;28;20514;-43
2021/12/03 01:50:27;;;;;;;10.00;5.85;;;0.30;99.90;;;;;;5108715;28;20028;-42
2021/12/03 01:52:52;;;;;;;9.93;5.75;;;0.30;99.90;;;;;;5107281;28;20065;-44
2021/12/03 01:55:19;;;;;;;11.07;6.10;;;0.20;99.90;;;;;;5108016;28;20051;-43
2021/12/03 01:57:45;;;;;;;11.77;6.35;;;0.20;99.90;;;;;;5108139;28;20038;-43
2021/12/03 02:00:16;;;;;;;11.73;6.05;;;0.20;99.90;;;;;;5108393;28;20115;-44
2021/12/03 02:02:42;;;;;;;17.33;7.30;;;0.20;99.90;;;;;;5092449;28;20465;-43
2021/12/03 02:05:08;;;;;;;12.52;6.15;;;0.10;99.90;;;;;;5105367;28;20026;-42
2021/12/03 02:07:34;;;;;;;14.65;6.60;;;0.10;99.90;;;;;;5112497;28;20476;-43
2021/12/03 02:10:00;;;;;;;17.73;7.82;;;0.10;99.90;;;;;;5112418;28;20081;-44
2021/12/03 02:12:25;;;;;;;13.65;7.10;;;0.00;99.90;;;;;;5112532;28;20032;-44
2021/12/03 02:14:51;;;;;;;15.15;7.32;;;0.10;99.90;;;;;;5110167;28;20035;-44
2021/12/03 02:17:17;;;;;;;15.02;8.05;;;0.10;99.90;;;;;;5112024;28;20100;-43
2021/12/03 02:19:42;;;;;;;13.15;7.70;;;0.10;99.90;;;;;;5112080;28;20050;-43
2021/12/03 02:22:09;;;;;;;11.73;7.28;;;0.10;99.90;;;;;;5111911;28;20251;-43
2021/12/03 02:24:34;;;;;;;14.15;7.53;;;0.10;99.90;;;;;;5111507;28;20226;-44
2021/12/03 02:27:00;;;;;;;15.35;7.53;;;0.00;99.90;;;;;;5111866;28;20023;-44
2021/12/03 02:29:26;;;;;;;16.45;8.60;;;0.00;99.90;;;;;;5112004;27;20312;-44
2021/12/03 02:31:53;;;;;;;13.70;7.38;;;0.00;99.90;;;;;;5108922;28;20015;-44
2021/12/03 02:34:18;;;;;;;13.38;7.35;;;0.00;99.90;;;;;;5102539;28;20027;-44
2021/12/03 02:36:44;;;;;;;19.27;8.35;;;0.00;99.90;;;;;;5111745;28;20102;-42
2021/12/03 02:39:09;;;;;;;16.35;7.90;;;0.00;99.90;;;;;;5111608;28;20103;-42
2021/12/03 02:41:35;;;;;;;15.05;8.65;;;0.00;99.90;;;;;;5111697;28;20023;-42
2021/12/03 02:44:00;;;;;;;19.45;7.80;;;0.10;99.90;;;;;;5110915;28;20582;-43
2021/12/03 02:46:26;;;;;;;15.23;7.68;;;0.00;99.90;;;;;;5111116;28;20035;-41
2021/12/03 02:48:51;;;;;;;21.13;8.65;;;0.00;99.90;;;;;;5111606;28;20102;-40
2021/12/03 02:51:17;;;;;;;19.60;8.70;;;0.10;99.90;;;;;;5111414;28;20114;-42
2021/12/03 02:53:42;;;;;;;18.45;8.88;;;0.10;99.90;;;;;;5110910;28;20028;-42
2021/12/03 02:56:08;;;;;;;17.00;9.13;;;0.10;99.90;;;;;;5111096;28;20032;-43
2021/12/03 02:58:35;;;;;;;18.88;9.00;;;0.10;99.90;;;;;;5111385;28;20024;-43
2021/12/03 03:01:01;;;;;;;14.55;8.10;;;0.10;99.90;;;;;;5108583;28;20049;-43
2021/12/03 03:03:26;;;;;;;20.30;9.98;;;0.10;99.90;;;;;;5102116;28;20027;-44
2021/12/03 03:06:00;;;;;;;16.95;8.85;;;0.10;99.90;;;;;;5111557;28;20023;-43
2021/12/03 03:08:26;;;;;;;18.98;9.50;;;0.10;99.90;;;;;;5111691;27;20030;-43
2021/12/03 03:10:54;;;;;;;23.33;9.23;;;0.10;99.90;;;;;;5110959;28;20108;-43
2021/12/03 03:13:19;;;;;;;17.35;8.52;;;0.10;99.90;;;;;;5110467;28;20015;-44
2021/12/03 03:15:46;;;;;;;19.67;9.43;;;0.10;99.90;;;;;;5111176;28;20038;-43
2021/12/03 03:18:15;;;;;;;18.30;9.57;;;0.10;99.90;;;;;;5110233;28;20361;-44
2021/12/03 03:20:43;;;;;;;15.95;8.68;;;0.10;99.90;;;;;;5111397;28;20028;-43
2021/12/03 03:23:09;;;;;;;17.55;8.48;;;0.10;99.90;;;;;;5109331;28;20110;-44
2021/12/03 03:25:36;;;;;;;16.40;8.50;;;0.10;99.90;;;;;;5099649;28;20440;-43
2021/12/03 03:28:02;;;;;;;22.77;9.27;;;0.10;99.90;;;;;;5098013;28;20050;-43
2021/12/03 03:30:28;;;;;;;19.75;9.20;;;0.10;99.90;;;;;;5090628;28;20059;-43
2021/12/03 03:32:54;;;;;;;18.52;9.75;;;0.10;99.90;;;;;;5091844;28;20052;-44
2021/12/03 03:35:19;;;;;;;19.90;9.35;;;0.10;99.90;;;;;;5090718;28;20027;-44
2021/12/03 03:37:45;;;;;;;20.83;9.43;;;0.10;99.90;;;;;;5089657;28;20036;-43
2021/12/03 03:40:11;;;;;;;20.00;9.43;;;0.10;99.90;;;;;;5089739;28;20389;-43
2021/12/03 03:42:37;;;;;;;18.17;9.32;;;0.00;99.90;;;;;;5088853;28;20016;-44
2021/12/03 03:45:07;;;;;;;17.88;9.05;;;0.00;99.90;;;;;;5089542;28;20394;-43
2021/12/03 03:47:33;;;;;;;21.45;9.73;;;0.00;99.90;;;;;;5088799;28;20031;-45
2021/12/03 03:49:59;;;;;;;16.27;8.98;;;0.00;99.90;;;;;;5089820;28;20386;-43
2021/12/03 03:52:27;;;;;;;19.80;9.20;;;0.00;99.90;;;;;;5089589;28;20027;-44
2021/12/03 03:54:52;;;;;;;22.38;9.75;;;0.00;99.90;;;;;;5087616;28;20142;-43
2021/12/03 03:57:18;;;;;;;21.60;9.25;;;0.00;99.90;;;;;;5088267;28;20028;-43
2021/12/03 03:59:43;;;;;;;22.40;10.10;;;0.00;99.90;;;;;;5088176;28;20117;-43
2021/12/03 04:02:09;;;;;;;24.17;10.32;;;0.00;99.90;;;;;;5093222;28;20039;-43
2021/12/03 04:04:35;;;;;;;18.60;8.90;;;0.00;99.90;;;;;;5100012;28;20023;-43
2021/12/03 04:07:00;;;;;;;19.23;9.35;;;0.00;99.90;;;;;;5108580;28;20028;-43
2021/12/03 04:09:26;;;;;;;24.05;10.32;;;0.00;99.90;;;;;;5109587;28;20491;-43
2021/12/03 04:11:51;;;;;;;20.20;10.63;;;0.00;99.90;;;;;;5109990;28;20035;-43
2021/12/03 04:14:17;;;;;;;20.40;9.25;;;0.00;99.90;;;;;;5109238;28;20376;-42
2021/12/03 04:16:42;;;;;;;22.85;9.52;;;0.00;99.90;;;;;;5109553;28;20027;-43
2021/12/03 04:19:08;;;;;;;23.50;10.18;;;0.00;99.90;;;;;;5109744;28;20059;-43
2021/12/03 04:21:33;;;;;;;21.15;10.80;;;0.00;99.90;;;;;;5110197;28;20016;-45
2021/12/03 04:23:59;;;;;;;22.80;10.77;;;0.00;99.90;;;;;;5109028;28;20063;-43
2021/12/03 04:26:24;;;;;;;27.98;13.43;;;0.00;99.90;;;;;;5109675;28;20058;-44
2021/12/03 04:28:50;;;;;;;24.30;10.52;;;0.00;99.90;;;;;;5109469;28;20508;-43
2021/12/03 04:31:15;;;;;;;22.85;10.98;;;0.10;99.90;;;;;;5106952;28;20034;-43
2021/12/03 04:33:41;;;;;;;20.35;9.77;;;0.00;99.90;;;;;;5097803;28;20028;-44
2021/12/03 04:36:07;;;;;;;23.05;11.23;;;0.00;99.90;;;;;;5109400;28;20024;-43
2021/12/03 04:38:33;;;;;;;23.35;10.95;;;0.00;99.90;;;;;;5107950;28;20427;-43
2021/12/03 04:41:01;;;;;;;24.35;10.52;;;0.10;99.90;;;;;;5109425;28;20057;-43
2021/12/03 04:43:27;;;;;;;23.52;11.60;;;0.10;99.90;;;;;;5108747;27;20020;-43
2021/12/03 04:45:52;;;;;;;25.17;10.75;;;0.10;99.90;;;;;;5108135;28;20040;-43
2021/12/03 04:48:18;;;;;;;31.75;12.02;;;0.10;99.90;;;;;;5108989;28;20024;-44
2021/12/03 04:50:46;;;;;;;26.85;11.27;;;0.10;99.90;;;;;;5109333;28;20023;-43
2021/12/03 04:53:12;;;;;;;27.67;11.98;;;0.00;99.90;;;;;;5109135;28;20034;-43
2021/12/03 04:55:38;;;;;;;26.60;13.15;;;0.00;99.90;;;;;;5109050;28;20080;-43
2021/12/03 04:58:05;;;;;;;23.85;11.80;;;0.00;99.90;;;;;;5109139;28;20027;-44
2021/12/03 05:00:33;;;;;;;27.45;11.35;;;0.10;99.90;;;;;;5109162;28;20027;-44
2021/12/03 05:03:00;;;;;;;27.50;12.52;;;0.10;99.90;;;;;;5096840;28;20022;-44
2021/12/03 05:05:31;;;;;;;29.00;11.95;;;0.10;99.90;;;;;;5108371;28;20381;-43
2021/12/03 05:07:58;;;;;;;26.25;12.00;;;0.10;99.90;;;;;;5109058;28;20034;-44
2021/12/03 05:10:30;;;;;;;28.13;12.30;;;0.00;99.90;;;;;;5108853;28;20058;-44
2021/12/03 05:13:01;;;;;;;31.40;12.40;;;0.10;99.90;;;;;;5109280;28;20034;-43
2021/12/03 05:15:27;;;;;;;26.83;11.50;;;0.10;99.90;;;;;;5108279;28;20059;-43
2021/12/03 05:17:53;;;;;;;26.85;11.82;;;0.10;99.90;;;;;;5108420;28;20031;-44
2021/12/03 05:20:18;;;;;;;24.65;10.90;;;0.10;99.90;;;;;;5108894;28;20038;-43
2021/12/03 05:22:44;;;;;;;24.42;12.38;;;0.10;99.90;;;;;;5108169;28;20131;-44
2021/12/03 05:25:10;;;;;;;26.55;13.07;;;0.10;99.90;;;;;;5087709;28;20482;-44
2021/12/03 05:27:38;;;;;;;34.75;13.45;;;0.10;99.90;;;;;;5086764;28;20504;-43
2021/12/03 05:30:06;;;;;;;29.38;12.90;;;0.10;99.90;;;;;;5088178;28;20550;-44
2021/12/03 05:32:32;;;;;;;30.20;12.05;;;0.10;99.90;;;;;;5088566;28;20042;-45
2021/12/03 05:34:57;;;;;;;28.73;13.23;;;0.10;99.90;;;;;;5088266;28;20032;-44
2021/12/03 05:37:23;;;;;;;31.98;14.00;;;0.10;99.90;;;;;;5087922;28;20443;-43
2021/12/03 05:39:48;;;;;;;33.33;15.30;;;0.10;99.90;;;;;;5087906;28;20503;-43
2021/12/03 05:42:14;;;;;;;25.77;13.50;;;0.10;99.90;;;;;;5092210;28;20026;-43
2021/12/03 05:44:39;;;;;;;33.13;14.10;;;0.10;99.90;;;;;;5091346;28;20016;-45
2021/12/03 05:47:05;;;;;;;25.42;12.38;;;0.10;99.90;;;;;;5091929;28;20115;-43
2021/12/03 05:49:31;;;;;;;28.55;12.85;;;0.10;99.90;;;;;;5092214;28;20019;-43
2021/12/03 05:51:56;;;;;;;29.65;14.10;;;0.10;99.90;;;;;;5091060;28;20016;-43
2021/12/03 05:54:23;;;;;;;36.17;15.45;;;0.10;99.90;;;;;;5091796;28;20028;-43
2021/12/03 05:56:48;;;;;;;32.90;14.10;;;0.20;99.90;;;;;;5092473;28;20036;-44
2021/12/03 05:59:14;;;;;;;25.00;12.77;;;0.10;99.90;;;;;;5092281;28;20035;-43
2021/12/03 06:01:41;;;;;;;28.08;13.95;;;0.10;99.90;;;;;;5096884;28;20051;-43
2021/12/03 06:04:06;;;;;;;28.58;14.18;;;0.10;99.90;;;;;;5103471;28;20019;-46
2021/12/03 06:06:32;;;;;;;32.05;14.32;;;0.20;99.90;;;;;;5112452;28;20038;-43
2021/12/03 06:08:58;;;;;;;26.17;12.75;;;0.20;99.90;;;;;;5112662;28;20024;-44
2021/12/03 06:11:24;;;;;;;30.15;14.70;;;0.20;99.90;;;;;;5112566;28;20024;-44
2021/12/03 06:13:49;;;;;;;27.73;14.48;;;0.20;99.90;;;;;;5111450;27;20435;-46
2021/12/03 06:16:15;;;;;;;31.05;13.95;;;0.20;99.90;;;;;;5111799;27;20032;-43
2021/12/03 06:18:41;;;;;;;28.67;13.05;;;0.20;99.90;;;;;;5112049;28;20028;-44
2021/12/03 06:21:09;;;;;;;25.92;12.98;;;0.30;99.90;;;;;;5111941;28;20047;-44
2021/12/03 06:23:34;;;;;;;29.92;12.27;;;0.30;99.90;;;;;;5111263;28;20246;-43
2021/12/03 06:26:00;;;;;;;29.08;13.85;;;0.30;99.90;;;;;;5110504;28;20023;-45
2021/12/03 06:28:28;;;;;;;26.48;13.68;;;0.20;99.90;;;;;;5112161;28;20027;-44
2021/12/03 06:30:54;;;;;;;29.85;13.25;;;0.20;99.90;;;;;;5111142;28;20055;-44
2021/12/03 06:33:20;;;;;;;27.90;12.95;;;0.20;99.90;;;;;;5090423;28;20529;-43
2021/12/03 06:35:46;;;;;;;29.08;13.48;;;0.20;99.90;;;;;;5091249;28;20123;-45
2021/12/03 06:38:12;;;;;;;30.77;12.70;;;0.20;99.90;;;;;;5091163;28;20295;-43
2021/12/03 06:40:38;;;;;;;29.83;15.32;;;0.20;99.90;;;;;;5091144;28;20023;-43
2021/12/03 06:43:04;;;;;;;28.13;12.60;;;0.20;99.90;;;;;;5091149;28;20048;-44
2021/12/03 06:45:29;;;;;;;25.38;12.10;;;0.20;99.90;;;;;;5089055;28;20039;-43
2021/12/03 06:47:55;;;;;;;23.95;12.13;;;0.20;99.90;;;;;;5090968;28;20040;-43
2021/12/03 06:50:21;;;;;;;29.05;14.82;;;0.30;99.90;;;;;;5090992;28;20028;-43
2021/12/03 06:52:55;;;;;;;28.95;12.80;;;0.30;99.90;;;;;;5089618;28;20048;-44
2021/12/03 06:55:21;;;;;;;27.02;13.10;;;0.30;99.90;;;;;;5090413;28;20054;-43
2021/12/03 06:57:47;;;;;;;22.98;12.73;;;0.40;99.90;;;;;;5090871;28;20111;-44
2021/12/03 07:00:14;;;;;;;26.40;13.68;;;0.40;99.90;;;;;;5089773;28;20108;-43
2021/12/03 07:02:40;;;;;;;30.77;13.50;;;0.40;99.90;;;;;;5093347;28;20013;-44
2021/12/03 07:05:07;;;;;;;28.55;13.98;;;0.40;99.90;;;;;;5097546;28;20039;-42
2021/12/03 07:07:33;;;;;;;31.08;15.40;;;0.40;99.90;;;;;;5110705;28;20024;-44
2021/12/03 07:10:00;;;;;;;27.83;13.13;;;0.50;99.90;;;;;;5110823;28;20038;-44
2021/12/03 07:12:26;;;;;;;33.20;13.45;;;0.50;99.90;;;;;;5110979;28;20024;-44
2021/12/03 07:14:52;;;;;;;26.75;14.15;;;0.50;99.90;;;;;;5110077;28;20035;-43
2021/12/03 07:17:17;;;;;;;28.50;13.65;;;0.60;99.90;;;;;;5109048;28;20477;-43
2021/12/03 07:19:43;;;;;;;28.27;13.57;;;0.60;99.90;;;;;;5109593;28;20020;-43
2021/12/03 07:22:08;;;;;;;27.70;13.93;;;0.60;99.90;;;;;;5109537;28;20016;-43
2021/12/03 07:24:34;;;;;;;26.25;14.88;;;0.60;99.90;;;;;;5110603;28;20085;-43
2021/12/03 07:27:00;;;;;;;27.27;13.82;;;0.70;99.90;;;;;;5110699;28;20039;-44
2021/12/03 07:29:26;;;;;;;28.23;13.88;;;0.70;99.90;;;;;;5110706;27;20110;-43
2021/12/03 07:31:51;;;;;;;28.10;14.30;;;0.70;99.90;;;;;;5110358;28;20030;-46
2021/12/03 07:34:17;;;;;;;30.50;15.07;;;0.80;99.90;;;;;;5100133;28;20020;-44
2021/12/03 07:36:42;;;;;;;27.98;13.70;;;0.80;99.90;;;;;;5105214;28;20053;-44
2021/12/03 07:39:08;;;;;;;28.08;13.63;;;0.80;99.90;;;;;;5109223;28;20023;-44
2021/12/03 07:41:36;;;;;;;34.38;15.77;;;0.90;99.90;;;;;;5109246;28;20111;-45
2021/12/03 07:44:02;;;;;;;30.30;14.98;;;0.80;99.90;;;;;;5109878;28;20016;-44
2021/12/03 07:46:28;;;;;;;28.77;15.18;;;0.80;99.90;;;;;;5109796;28;20611;-45
2021/12/03 07:48:53;;;;;;;33.28;16.35;;;0.80;99.90;;;;;;5110403;28;20582;-43
2021/12/03 07:51:19;;;;;;;34.08;15.25;;;0.80;99.90;;;;;;5110686;28;20126;-43
2021/12/03 07:53:44;;;;;;;33.92;15.75;;;0.90;99.90;;;;;;5109589;28;20031;-44
2021/12/03 07:56:11;;;;;;;27.25;14.73;;;0.90;99.90;;;;;;5108819;28;20027;-45
2021/12/03 07:58:37;;;;;;;32.08;14.73;;;0.90;99.90;;;;;;5109949;28;20084;-44
2021/12/03 08:01:04;;;;;;;27.42;13.98;;;0.90;99.90;;;;;;5107003;28;20024;-44
2021/12/03 08:03:29;;;;;;;29.63;15.23;;;0.90;99.90;;;;;;5095284;28;20020;-44
2021/12/03 08:05:55;;;;;;;30.95;15.60;;;1.00;99.90;;;;;;5106636;28;20028;-44
2021/12/03 08:08:26;;;;;;;27.60;13.85;;;1.00;99.90;;;;;;5110017;28;20039;-43
2021/12/03 08:10:52;;;;;;;;;;;1.00;99.90;;;;;;5110289;28;20039;-44
2021/12/03 08:13:17;;;;;;;31.13;15.23;;;1.10;99.90;;;;;;5109215;28;19929;-44
2021/12/03 08:15:43;;;;;;;25.00;14.63;;;1.10;99.90;;;;;;5109783;28;20027;-46
2021/12/03 08:18:09;;;;;;;31.48;13.85;;;1.10;99.90;;;;;;5109362;28;20031;-43
2021/12/03 08:20:35;;;;;;;36.45;16.10;;;1.10;99.90;;;;;;5109782;28;20424;-43
2021/12/03 08:23:01;;;;;;;27.25;13.85;;;1.20;99.90;;;;;;5109996;28;20028;-44
2021/12/03 08:25:28;;;;;;;28.25;13.75;;;1.20;99.90;;;;;;5105528;28;20023;-47
2021/12/03 08:27:54;;;;;;;29.23;13.52;;;1.40;99.90;;;;;;5105461;28;20028;-44
2021/12/03 08:30:20;;;;;;;20.80;12.00;;;1.40;99.90;;;;;;5107614;28;20031;-44
2021/12/03 08:32:46;;;;;;;23.88;13.15;;;1.40;99.90;;;;;;5098924;28;20035;-46
2021/12/03 08:35:11;;;;;;;21.20;12.10;;;1.50;99.90;;;;;;5097772;28;20072;-44
2021/12/03 08:37:43;;;;;;;26.08;12.77;;;1.60;99.90;;;;;;5107075;28;20034;-44
2021/12/03 08:40:10;;;;;;;23.52;11.48;;;1.70;99.90;;;;;;5107988;28;20023;-44
2021/12/03 08:42:35;;;;;;;26.83;12.30;;;1.80;99.90;;;;;;5107363;28;20027;-44
2021/12/03 08:45:04;;;;;;;21.05;11.38;;;1.90;99.90;;;;;;5106902;28;20060;-44
2021/12/03 08:47:29;;;;;;;22.85;10.52;;;1.90;99.90;;;;;;5107941;28;20038;-45
2021/12/03 08:49:56;;;;;;;27.75;10.70;;;2.10;99.90;;;;;;5108971;28;20036;-45
2021/12/03 08:54:55;;;;;;;20.00;9.68;;;2.20;99.90;;;;;;5107950;28;20442;-43
2021/12/03 08:57:25;;;;;;;21.40;9.75;;;2.30;99.90;;;;;;5107089;28;20273;-44
2021/12/03 08:59:53;;;;;;;19.50;10.50;;;2.20;99.90;;;;;;5105836;28;20028;-44
2021/12/03 09:02:18;;;;;;;18.65;9.18;;;2.20;99.90;;;;;;5099167;28;20016;-44
2021/12/03 09:04:44;;;;;;;20.20;9.77;;;2.30;99.90;;;;;;5099477;28;20011;-44
2021/12/03 09:07:10;;;;;;;16.35;9.15;;;2.20;99.90;;;;;;5107933;28;20023;-46
2021/12/03 09:09:36;;;;;;;20.25;9.77;;;2.20;99.90;;;;;;5108900;28;20473;-44
2021/12/03 09:12:01;;;;;;;18.63;9.18;;;2.20;99.90;;;;;;5107504;28;20019;-46
2021/12/03 09:14:34;;;;;;;19.23;8.32;;;2.20;99.90;;;;;;5106912;28;20071;-43
2021/12/03 09:22:34;;;;;;;17.73;8.00;;;2.30;99.90;;;;;;5066060;28;20047;-43
2021/12/03 09:25:00;;;;;;;17.55;8.00;;;2.30;99.90;;;;;;5066292;28;20026;-45
2021/12/03 09:27:27;;;;;;;17.42;9.52;;;2.30;99.90;;;;;;5066773;28;20316;-45
2021/12/03 09:29:55;;;;;;;18.85;9.05;;;2.40;99.90;;;;;;5066351;28;20508;-44
2021/12/03 09:32:23;;;;;;;17.88;9.18;;;2.40;99.90;;;;;;5080889;28;20012;-45
2021/12/03 09:34:49;;;;;;;15.13;8.13;;;2.50;99.90;;;;;;5098130;28;20020;-44
2021/12/03 09:37:14;;;;;;;13.77;7.38;;;2.60;99.90;;;;;;5106830;28;20581;-43
2021/12/03 09:39:41;;;;;;;18.58;7.63;;;2.80;99.90;;;;;;5107409;28;20032;-43
2021/12/03 09:42:07;;;;;;;19.35;8.80;;;2.80;99.90;;;;;;5105906;28;20488;-44
2021/12/03 09:44:32;;;;;;;14.95;7.68;;;3.00;99.90;;;;;;5104722;28;20230;-47
2021/12/03 09:46:59;;;;;;;18.00;8.02;;;3.10;99.90;;;;;;5106948;28;20459;-44
2021/12/03 09:49:33;;;;;;;16.20;8.80;;;3.20;99.90;;;;;;5104258;28;20036;-44
2021/12/03 09:54:46;;;;;;;17.35;8.30;;;3.10;99.90;;;;;;5074307;28;20563;-44
2021/12/03 09:57:27;;;;;;;19.08;9.30;;;3.10;99.90;;;;;;5073200;28;20494;-44
2021/12/03 10:05:31;;;;;;;20.80;9.20;;;2.90;99.90;;;;;;5080313;28;20429;-46
2021/12/03 10:13:17;;;;;;;18.02;9.07;;;3.00;99.90;;;;;;5077928;28;20383;-43
2021/12/03 10:18:43;;;;;;;23.00;9.35;;;3.10;99.90;;;;;;5084009;28;20039;-44
2021/12/03 10:21:18;;;;;;;17.38;8.68;;;3.00;99.90;;;;;;5076955;28;20493;-44
2021/12/03 10:29:17;;;;;;;18.02;8.10;;;3.30;99.90;;;;;;5082922;28;20066;-44
2021/12/03 10:39:49;;;;;;;22.05;8.35;;;3.30;99.90;;;;;;5078199;28;20461;-44
2021/12/03 10:42:49;;;;;;;18.40;8.85;;;3.30;99.90;;;;;;5079871;28;20021;-44
2021/12/03 10:47:49;;;;;;;19.08;8.43;;;3.40;99.90;;;;;;5080713;28;20051;-45
2021/12/03 10:50:41;;;;;;;16.77;8.63;;;3.40;99.90;;;;;;5087826;28;20036;-44
2021/12/03 10:53:21;;;;;;;17.52;9.07;;;3.30;99.90;;;;;;5077189;28;20731;-44
2021/12/03 11:04:26;;;;;;;17.48;9.38;;;3.50;99.90;;;;;;5076004;28;20742;-44
2021/12/03 11:06:46;;;;;;;17.35;9.13;;;3.40;99.90;;;;;;5079240;28;20107;-46
2021/12/03 11:16:04;;;;;;;19.60;9.60;;;3.70;99.90;;;;;;5088415;28;20554;-46
2021/12/03 11:19:04;;;;;;;15.00;9.15;;;3.80;99.90;;;;;;5088391;28;20386;-44
2021/12/03 11:53:43;;;;;;;18.48;10.32;;;3.60;99.90;;;;;;5108739;28;20487;-43
2021/12/03 11:59:08;;;;;;;22.40;9.45;;;3.60;99.90;;;;;;5108208;28;20356;-44
2021/12/03 12:05:02;;;;;;;18.77;9.30;;;3.70;99.90;;;;;;5096405;28;20095;-45
2021/12/03 12:15:58;;;;;;;17.40;9.07;;;3.80;99.90;;;;;;5107719;28;20118;-44
2021/12/03 12:23:00;;;;;;;21.52;9.48;;;3.70;99.90;;;;;;5087810;28;20089;-44
2021/12/03 12:36:32;;;;;;;16.05;9.15;;;3.70;99.90;;;;;;5100994;28;20542;-45
2021/12/03 12:42:21;;;;;;;16.08;8.82;;;3.70;99.90;;;;;;5086823;28;20034;-45
2021/12/03 12:44:53;;;;;;;19.13;9.45;;;3.70;99.90;;;;;;5085284;28;20028;-43
2021/12/03 12:49:09;;;;;;;16.48;9.65;;;3.60;99.90;;;;;;5086809;28;20496;-44
2021/12/03 12:56:52;;;;;;;18.08;9.10;;;3.80;99.90;;;;;;5087333;28;20035;-44
2021/12/03 12:59:55;;;;;;;18.58;10.10;;;3.70;99.90;;;;;;5086653;28;20039;-43
2021/12/03 13:02:54;;;;;;;14.95;8.45;;;3.80;99.90;;;;;;5081912;28;20037;-43
2021/12/03 13:10:43;;;;;;;15.27;8.30;;;3.70;99.90;;;;;;5107551;28;20026;-43
2021/12/03 13:16:20;;;;;;;16.10;8.88;;;3.80;99.90;;;;;;5108010;28;20085;-44
2021/12/03 13:18:58;;;;;;;19.08;8.82;;;3.80;99.90;;;;;;5106972;28;20036;-43
2021/12/03 14:18:18;;;;;;;14.45;8.07;;;4.00;99.90;;;;;;5111146;28;20444;-43
2021/12/03 14:29:19;;;;;;;13.70;7.15;;;4.00;99.90;;;;;;5111066;28;20054;-42
2021/12/03 14:36:04;;;;;;;;;;;3.80;99.90;;;;;;5102431;28;20495;-42
2021/12/03 14:38:29;;;;;;;16.70;6.82;;;3.80;99.90;;;;;;5110134;28;20265;-43
2021/12/03 14:41:12;;;;;;;17.10;7.32;;;3.80;99.90;;;;;;5110746;28;20269;-44
2021/12/03 14:43:47;;;;;;;12.23;6.97;;;3.80;99.90;;;;;;5108245;28;20035;-43
2021/12/03 14:49:05;;;;;;;17.80;6.60;;;3.70;99.90;;;;;;5110268;28;20574;-43
2021/12/03 14:51:46;;;;;;;12.52;7.30;;;3.80;99.90;;;;;;5110564;28;20050;-43
2021/12/03 14:57:22;;;;;;;12.60;6.35;;;3.70;99.90;;;;;;5110507;28;20586;-44
2021/12/03 14:59:53;;;;;;;14.57;6.38;;;3.70;99.90;;;;;;5109234;28;20511;-44
2021/12/03 15:02:41;;;;;;;13.07;6.57;;;3.60;99.90;;;;;;5105067;27;20739;-43
2021/12/03 15:05:30;;;;;;;16.40;6.13;;;3.60;99.90;;;;;;5101646;28;20016;-44
2021/12/03 15:07:56;;;;;;;12.57;5.97;;;3.60;99.90;;;;;;5110212;28;20051;-44
2021/12/03 15:10:38;;;;;;;13.18;6.07;;;3.40;99.90;;;;;;5108844;28;20070;-43
2021/12/03 15:13:28;;;;;;;15.02;5.50;;;3.50;99.90;;;;;;5108989;28;20313;-44
2021/12/03 15:21:20;;;;;;;13.32;5.93;;;3.60;99.90;;;;;;5110370;28;20031;-43
2021/12/03 15:24:27;;;;;;;17.02;6.25;;;3.60;99.90;;;;;;5108815;28;20031;-44
2021/12/03 15:29:44;;;;;;;15.30;6.25;;;3.60;99.90;;;;;;5110031;28;20063;-43
2021/12/03 15:34:57;;;;;;;11.80;5.10;;;3.40;99.90;;;;;;5100046;28;19914;-44
2021/12/03 15:40:23;;;;;;;12.00;5.80;;;3.50;99.90;;;;;;5109362;28;20030;-44
2021/12/03 15:51:59;;;;;;;11.88;4.63;;;3.40;99.90;;;;;;5101538;28;20084;-44
2021/12/03 16:04:43;;;;;;;12.77;5.05;;;3.40;99.90;;;;;;5089935;28;20519;-43
2021/12/03 16:07:44;;;;;;;15.75;5.72;;;3.40;99.90;;;;;;5087686;28;20047;-43
2021/12/03 16:13:03;;;;;;;14.02;5.45;;;3.40;99.90;;;;;;5088866;28;20390;-42
2021/12/03 16:18:45;;;;;;;15.85;6.00;;;3.40;99.90;;;;;;5087792;28;20535;-43
2021/12/03 16:21:32;;;;;;;14.10;5.32;;;3.30;99.90;;;;;;5088057;28;20103;-43
2021/12/03 16:53:31;;;;;;;10.45;4.07;;;3.50;99.90;;;;;;5087245;28;20089;-44
2021/12/03 16:56:07;;;;;;;11.57;4.00;;;3.40;99.90;;;;;;5086697;28;20115;-44
2021/12/03 16:58:34;;;;;;;10.00;3.83;;;3.50;99.90;;;;;;5088075;28;20056;-43
2021/12/03 17:04:05;;;;;;;9.15;3.88;;;3.50;99.90;;;;;;5082885;28;20096;-44
2021/12/03 17:14:15;;;;;;;10.55;4.10;;;3.40;99.90;;;;;;5085973;28;20036;-44
2021/12/03 17:28:31;;;;;;;9.75;4.07;;;3.60;99.90;;;;;;5086958;28;20113;-43
2021/12/03 17:55:00;;;;;;;13.05;4.72;;;3.50;99.90;;;;;;5090286;28;20078;-43
2021/12/03 17:59:54;;;;;;;8.82;4.63;;;3.50;99.90;;;;;;5091535;28;20050;-43
2021/12/03 18:15:55;;;;;;;10.63;4.95;;;3.30;99.90;;;;;;5110846;28;19914;-43
2021/12/03 18:45:37;;;;;;;9.07;4.13;;;3.60;99.90;;;;;;5087841;28;20543;-43
2021/12/03 18:56:33;;;;;;;8.65;4.13;;;3.60;99.90;;;;;;5066313;28;20117;-44
2021/12/03 18:59:04;;;;;;;8.30;4.68;;;3.60;99.90;;;;;;5069844;28;20468;-44
2021/12/03 19:01:32;;;;;;;9.45;5.45;;;3.60;99.90;;;;;;5089737;28;20031;-43
2021/12/03 19:07:03;;;;;;;10.48;4.97;;;3.70;99.90;;;;;;5110226;28;20020;-44
2021/12/03 19:09:36;;;;;;;9.82;5.15;;;3.60;99.90;;;;;;5094983;28;20028;-44
2021/12/03 19:12:24;;;;;;;10.13;5.18;;;3.70;99.90;;;;;;5089141;28;20131;-43